createdAt,value
2019-04-14T00:02:40.346Z,18.20
2019-04-14T00:08:39.517Z,27.45
2019-04-14T00:11:30.167Z,33.70
2019-04-14T00:14:20.835Z,21.97
2019-04-14T00:17:11.079Z,29.98
2019-04-14T00:20:00.990Z,23.95
2019-04-14T00:22:51.255Z,27.40
2019-04-14T00:25:41.255Z,23.38
2019-04-14T00:28:30.089Z,27.73
2019-04-14T00:31:11.662Z,23.67
2019-04-14T00:46:02.338Z,24.40
2019-04-14T00:48:51.804Z,21.73
2019-04-14T00:51:42.479Z,22.52
2019-04-14T00:54:32.580Z,25.02
2019-04-14T01:00:29.756Z,19.90
2019-04-14T01:03:19.975Z,20.75
2019-04-14T01:06:09.726Z,30.90
2019-04-14T01:08:59.929Z,32.17
2019-04-14T01:11:50.973Z,23.98
2019-04-14T01:14:40.953Z,28.20
2019-04-14T01:17:31.125Z,21.97
2019-04-14T01:20:21.127Z,24.92
2019-04-14T01:23:10.825Z,26.17
2019-04-14T01:26:00.677Z,29.02
2019-04-14T01:28:50.471Z,28.57
2019-04-14T01:31:33.873Z,27.80
2019-04-14T01:34:41.820Z,27.37
2019-04-14T01:37:31.165Z,25.37
2019-04-14T01:40:21.236Z,24.92
2019-04-14T01:43:10.272Z,26.57
2019-04-14T01:46:09.600Z,30.52
2019-04-14T01:48:51.884Z,33.65
2019-04-14T01:52:01.386Z,33.95
2019-04-14T01:55:09.291Z,44.30
2019-04-14T01:58:17.148Z,37.35
2019-04-14T02:04:02.825Z,33.40
2019-04-14T02:06:52.709Z,30.68
2019-04-14T02:09:42.646Z,28.20
2019-04-14T02:15:39.569Z,32.48
2019-04-14T02:18:29.805Z,23.60
2019-04-14T02:21:19.466Z,29.50
2019-04-14T02:24:09.288Z,37.63
2019-04-14T02:26:59.145Z,30.77
2019-04-14T02:29:41.221Z,29.00
2019-04-14T02:32:57.362Z,26.90
2019-04-14T02:36:01.586Z,29.48
2019-04-14T02:41:51.309Z,33.02
2019-04-14T02:44:23.977Z,31.62
2019-04-14T02:47:27.044Z,31.87
2019-04-14T02:49:56.574Z,22.20
2019-04-14T02:52:52.094Z,29.37
2019-04-14T02:55:44.877Z,26.23
2019-04-14T02:58:38.558Z,24.37
2019-04-14T03:01:27.562Z,25.27
2019-04-14T03:04:16.984Z,24.63
2019-04-14T03:07:10.249Z,32.58
2019-04-14T03:18:47.075Z,33.33
2019-04-14T03:22:05.106Z,34.58
2019-04-14T03:24:53.773Z,34.60
2019-04-14T03:31:25.380Z,33.13
2019-04-14T03:37:31.537Z,32.67
2019-04-14T03:39:53.579Z,35.35
2019-04-14T03:42:48.493Z,31.33
2019-04-14T03:45:42.882Z,34.92
2019-04-14T03:48:54.044Z,27.98
2019-04-14T03:51:18.936Z,36.98
2019-04-14T03:54:03.217Z,34.63
2019-04-14T03:56:53.663Z,28.25
2019-04-14T03:59:43.522Z,22.25
2019-04-14T04:02:33.953Z,30.45
2019-04-14T04:05:23.771Z,29.70
2019-04-14T04:08:13.658Z,36.15
2019-04-14T04:11:04.051Z,33.40
2019-04-14T04:13:54.114Z,31.45
2019-04-14T04:17:03.583Z,30.43
2019-04-14T04:19:53.457Z,27.73
2019-04-14T04:23:03.029Z,29.20
2019-04-14T04:26:10.929Z,31.33
2019-04-14T04:29:20.023Z,27.13
2019-04-14T04:32:04.074Z,34.95
2019-04-14T04:38:11.865Z,30.57
2019-04-14T04:41:01.594Z,28.20
2019-04-14T04:43:51.830Z,34.78
2019-04-14T04:46:41.820Z,30.90
2019-04-14T04:49:32.185Z,40.83
2019-04-14T04:52:21.275Z,31.90
2019-04-14T04:55:11.200Z,30.52
2019-04-14T04:58:01.359Z,38.30
2019-04-14T05:00:53.929Z,43.75
2019-04-14T05:03:42.816Z,37.85
2019-04-14T05:07:12.180Z,43.20
2019-04-14T05:10:20.182Z,38.83
2019-04-14T05:16:19.216Z,32.98
2019-04-14T05:19:18.572Z,38.55
2019-04-14T05:22:00.576Z,31.62
2019-04-14T05:24:50.776Z,42.35
2019-04-14T05:27:40.930Z,38.92
2019-04-14T05:30:31.345Z,45.98
2019-04-14T05:33:14.151Z,29.87
2019-04-14T05:36:04.135Z,32.93
2019-04-14T05:38:54.075Z,37.98
2019-04-14T05:41:57.082Z,40.98
2019-04-14T05:44:34.723Z,42.75
2019-04-14T05:47:26.213Z,41.42
2019-04-14T05:50:15.947Z,38.35
2019-04-14T05:53:04.858Z,36.03
2019-04-14T05:55:54.619Z,39.08
2019-04-14T05:58:44.796Z,32.75
2019-04-14T06:04:24.879Z,36.00
2019-04-14T06:07:13.706Z,34.48
2019-04-14T06:10:02.556Z,34.80
2019-04-14T06:12:51.383Z,42.00
2019-04-14T06:15:40.238Z,35.70
2019-04-14T06:18:29.081Z,30.20
2019-04-14T06:21:17.946Z,34.45
2019-04-14T06:24:06.791Z,38.02
2019-04-14T06:26:55.629Z,36.28
2019-04-14T06:29:44.484Z,35.52
2019-04-14T06:32:27.854Z,41.85
2019-04-14T06:35:35.726Z,30.70
2019-04-14T06:38:43.586Z,35.92
2019-04-14T06:41:32.471Z,33.42
2019-04-14T06:44:21.276Z,39.25
2019-04-14T06:47:10.213Z,34.38
2019-04-14T06:49:59.049Z,34.83
2019-04-14T06:52:47.877Z,30.08
2019-04-14T06:55:36.722Z,31.05
2019-04-14T06:58:25.571Z,30.15
2019-04-14T07:01:14.407Z,24.10
2019-04-14T07:04:03.273Z,26.27
2019-04-14T07:06:32.733Z,26.60
2019-04-14T07:09:21.590Z,25.62
2019-04-14T07:12:10.504Z,25.72
2019-04-14T07:14:59.454Z,25.95
2019-04-14T07:17:48.300Z,22.48
2019-04-14T07:20:37.225Z,27.73
2019-04-14T07:23:26.205Z,25.23
2019-04-14T07:26:15.064Z,20.37
2019-04-14T07:29:04.048Z,22.75
2019-04-14T07:38:20.920Z,20.77
2019-04-14T07:44:38.346Z,17.60
2019-04-14T07:47:46.191Z,20.72
2019-04-14T07:56:49.552Z,24.37
2019-04-14T08:03:06.818Z,16.37
2019-04-14T08:05:55.678Z,17.73
2019-04-14T08:08:44.546Z,17.60
2019-04-14T08:11:33.818Z,23.80
2019-04-14T08:14:41.756Z,17.33
2019-04-14T08:17:30.585Z,17.27
2019-04-14T08:20:27.414Z,19.20
2019-04-14T08:23:10.081Z,18.20
2019-04-14T08:25:59.024Z,15.57
2019-04-14T08:28:47.861Z,16.30
2019-04-14T08:31:36.724Z,17.67
2019-04-14T08:34:18.554Z,15.80
2019-04-14T08:37:07.487Z,16.67
2019-04-14T08:39:56.317Z,15.50
2019-04-14T08:43:04.190Z,13.77
2019-04-14T08:49:21.488Z,17.30
2019-04-14T08:52:29.472Z,16.30
2019-04-14T08:55:37.362Z,20.03
2019-04-14T08:58:45.212Z,14.17
2019-04-14T09:01:53.087Z,17.20
2019-04-14T09:05:00.972Z,16.47
2019-04-14T09:11:18.256Z,13.97
2019-04-14T09:14:07.112Z,16.90
2019-04-14T09:16:55.949Z,15.60
2019-04-14T09:19:44.830Z,14.70
2019-04-14T09:22:33.659Z,14.67
2019-04-14T09:25:22.508Z,14.27
2019-04-14T09:28:11.494Z,16.73
2019-04-14T09:31:00.335Z,13.00
2019-04-14T09:33:42.497Z,14.27
2019-04-14T09:36:31.332Z,12.97
2019-04-14T09:39:20.187Z,14.43
2019-04-14T09:42:09.007Z,16.23
2019-04-14T09:44:57.904Z,15.97
2019-04-14T09:47:46.702Z,14.37
2019-04-14T09:50:35.818Z,15.27
2019-04-14T09:56:18.699Z,14.20
2019-04-14T09:59:07.617Z,13.30
2019-04-14T10:01:56.615Z,12.70
2019-04-14T10:05:04.591Z,13.97
2019-04-14T10:07:53.494Z,17.03
2019-04-14T10:10:42.354Z,14.30
2019-04-14T10:13:31.276Z,17.13
2019-04-14T10:16:39.204Z,14.90
2019-04-14T10:19:28.037Z,13.20
2019-04-14T10:22:16.889Z,12.87
2019-04-14T10:25:26.615Z,13.37
2019-04-14T10:28:15.478Z,13.10
2019-04-14T10:31:04.412Z,12.57
2019-04-14T10:33:44.287Z,12.60
2019-04-14T10:36:33.140Z,11.80
2019-04-14T10:39:21.984Z,15.47
2019-04-14T10:42:10.859Z,14.13
2019-04-14T10:44:59.729Z,13.13
2019-04-14T10:47:48.556Z,11.73
2019-04-14T10:50:37.427Z,13.67
2019-04-14T10:53:26.619Z,13.37
2019-04-14T10:59:09.752Z,11.63
2019-04-14T11:01:58.682Z,12.17
2019-04-14T11:04:47.597Z,12.23
2019-04-14T11:10:31.144Z,11.07
2019-04-14T11:13:20.023Z,13.77
2019-04-14T11:16:09.038Z,15.03
2019-04-14T11:19:17.076Z,12.23
2019-04-14T11:22:06.171Z,10.90
2019-04-14T11:24:55.101Z,11.33
2019-04-14T11:27:43.943Z,12.97
2019-04-14T11:30:33.028Z,11.90
2019-04-14T11:39:26.298Z,12.27
2019-04-14T11:42:34.366Z,17.13
2019-04-14T11:45:23.471Z,12.13
2019-04-14T11:48:12.330Z,13.30
2019-04-14T11:51:01.171Z,12.57
2019-04-14T11:53:50.008Z,10.57
2019-04-14T11:56:38.840Z,11.43
2019-04-14T11:59:46.766Z,11.30
2019-04-14T12:02:54.612Z,10.77
2019-04-14T12:06:02.508Z,12.23
2019-04-14T12:09:10.394Z,10.27
2019-04-14T12:14:59.004Z,11.77
2019-04-14T12:17:47.830Z,11.03
2019-04-14T12:20:36.688Z,11.77
2019-04-14T12:23:44.613Z,10.37
2019-04-14T12:26:33.438Z,14.20
2019-04-14T12:29:23.556Z,11.90
2019-04-14T12:32:12.930Z,11.70
2019-04-14T12:34:55.002Z,10.60
2019-04-14T12:37:43.833Z,11.33
2019-04-14T12:40:32.694Z,11.17
2019-04-14T12:43:40.563Z,10.10
2019-04-14T12:46:48.451Z,12.13
2019-04-14T12:49:56.321Z,11.10
2019-04-14T12:52:45.167Z,11.70
2019-04-14T12:59:08.202Z,10.83
2019-04-14T13:01:56.833Z,10.90
2019-04-14T13:04:45.666Z,9.50
2019-04-14T13:07:53.743Z,9.47
2019-04-14T13:10:42.796Z,12.70
2019-04-14T13:13:31.627Z,10.67
2019-04-14T13:16:20.456Z,7.83
2019-04-14T13:19:09.375Z,10.10
2019-04-14T13:21:58.197Z,9.30
2019-04-14T13:24:47.081Z,14.27
2019-04-14T13:27:35.950Z,12.20
2019-04-14T13:33:25.386Z,11.77
2019-04-14T13:36:07.286Z,11.77
2019-04-14T13:38:56.174Z,11.83
2019-04-14T13:41:45.047Z,11.43
2019-04-14T13:44:33.930Z,12.60
2019-04-14T13:47:22.788Z,12.40
2019-04-14T13:50:11.773Z,13.77
2019-04-14T13:53:00.606Z,12.30
2019-04-14T13:55:49.463Z,11.07
2019-04-14T13:58:40.752Z,14.10
2019-04-14T14:01:29.040Z,12.50
2019-04-14T14:04:18.567Z,12.33
2019-04-14T14:13:37.133Z,10.03
2019-04-14T14:16:25.751Z,14.50
2019-04-14T14:22:29.221Z,12.30
2019-04-14T14:25:37.133Z,11.10
2019-04-14T14:28:26.039Z,14.13
2019-04-14T14:31:14.966Z,14.20
2019-04-14T14:34:03.969Z,10.40
2019-04-14T14:36:46.282Z,11.83
2019-04-14T14:39:35.205Z,9.70
2019-04-14T14:42:24.064Z,16.53
2019-04-14T14:45:32.301Z,13.10
2019-04-14T14:48:40.176Z,10.13
2019-04-14T14:51:48.071Z,10.70
2019-04-14T14:54:36.981Z,10.83
2019-04-14T15:00:39.189Z,11.53
2019-04-14T15:03:28.038Z,9.50
2019-04-14T15:06:16.977Z,11.97
2019-04-14T15:09:26.723Z,11.60
2019-04-14T15:12:15.614Z,12.60
2019-04-14T15:18:19.955Z,12.80
2019-04-14T15:21:08.867Z,9.50
2019-04-14T15:23:57.795Z,12.77
2019-04-14T15:26:46.719Z,9.83
2019-04-14T15:29:35.501Z,12.50
2019-04-14T15:32:05.141Z,11.73
2019-04-14T15:34:54.309Z,10.73
2019-04-14T15:37:36.639Z,14.73
2019-04-14T15:40:25.480Z,12.20
2019-04-14T15:43:33.379Z,11.93
2019-04-14T15:46:22.206Z,11.30
2019-04-14T15:49:11.063Z,12.93
2019-04-14T15:51:59.977Z,15.23
2019-04-14T15:54:48.887Z,12.20
2019-04-14T15:57:56.731Z,12.33
2019-04-14T16:01:04.600Z,12.00
2019-04-14T16:04:12.462Z,15.27
2019-04-14T16:07:20.434Z,10.90
2019-04-14T16:13:37.800Z,12.97
2019-04-14T16:19:55.167Z,15.03
2019-04-14T16:22:44.126Z,13.43
2019-04-14T16:25:52.027Z,12.73
2019-04-14T16:31:59.634Z,16.63
2019-04-14T16:37:37.682Z,12.07
2019-04-14T16:40:45.647Z,11.57
2019-04-14T16:43:34.501Z,13.10
2019-04-14T16:46:42.443Z,11.40
2019-04-14T16:49:31.294Z,13.60
2019-04-14T16:52:39.182Z,9.90
2019-04-14T17:04:29.098Z,11.68
2019-04-14T17:07:37.222Z,12.35
2019-04-14T17:10:26.094Z,12.20
2019-04-14T17:13:15.004Z,14.75
2019-04-14T17:16:23.313Z,12.40
2019-04-14T17:22:27.121Z,12.35
2019-04-14T17:25:35.054Z,11.78
2019-04-14T17:34:38.325Z,15.45
2019-04-14T17:37:39.363Z,11.00
2019-04-14T17:43:27.811Z,12.75
2019-04-14T17:46:35.683Z,10.68
2019-04-14T17:49:43.600Z,11.65
2019-04-14T17:52:51.421Z,12.28
2019-04-14T17:55:59.296Z,12.15
2019-04-14T17:59:07.181Z,10.95
2019-04-14T18:05:10.810Z,17.73
2019-04-14T18:11:14.576Z,12.50
2019-04-14T18:14:22.574Z,16.12
2019-04-14T18:17:30.472Z,15.00
2019-04-14T18:23:28.853Z,13.62
2019-04-14T18:26:36.782Z,10.45
2019-04-14T18:29:44.688Z,12.47
2019-04-14T18:32:52.602Z,12.07
2019-04-14T18:36:00.480Z,16.30
2019-04-14T18:38:43.695Z,13.60
2019-04-14T18:41:51.570Z,19.80
2019-04-14T18:44:59.537Z,15.43
2019-04-14T18:48:07.560Z,10.78
2019-04-14T18:50:56.259Z,11.15
2019-04-14T18:54:04.106Z,15.48
2019-04-14T19:02:48.392Z,12.07
2019-04-14T19:05:37.340Z,11.68
2019-04-14T19:08:26.146Z,15.58
2019-04-14T19:11:15.002Z,15.05
2019-04-14T19:14:23.139Z,12.95
2019-04-14T19:17:31.194Z,17.95
2019-04-14T19:23:20.027Z,11.40
2019-04-14T19:26:28.053Z,13.40
2019-04-14T19:29:36.004Z,16.52
2019-04-14T19:35:32.623Z,11.55
2019-04-14T19:38:14.813Z,12.43
2019-04-14T19:41:03.692Z,12.80
2019-04-14T19:43:52.607Z,14.40
2019-04-14T19:46:41.407Z,13.43
2019-04-14T19:49:30.250Z,14.70
2019-04-14T19:52:19.212Z,14.15
2019-04-14T19:55:19.738Z,11.53
2019-04-14T19:57:58.594Z,11.65
2019-04-14T20:01:07.312Z,12.88
2019-04-14T20:03:57.196Z,11.80
2019-04-14T20:07:05.270Z,10.58
2019-04-14T20:09:54.129Z,13.88
2019-04-14T20:12:42.962Z,16.93
2019-04-14T20:15:50.968Z,11.15
2019-04-14T20:19:09.799Z,10.20
2019-04-14T20:22:08.459Z,11.57
2019-04-14T20:25:16.336Z,10.82
2019-04-14T20:34:20.498Z,12.80
2019-04-14T20:37:28.360Z,15.45
2019-04-14T20:40:09.995Z,14.50
2019-04-14T20:42:58.828Z,12.70
2019-04-14T20:45:47.736Z,13.45
2019-04-14T20:48:36.585Z,12.85
2019-04-14T20:51:44.574Z,18.05
2019-04-14T20:54:33.474Z,14.95
2019-04-14T20:57:41.357Z,12.18
2019-04-14T21:06:44.848Z,12.13
2019-04-14T21:09:52.799Z,14.03
2019-04-14T21:13:00.675Z,17.90
2019-04-14T21:16:12.815Z,15.83
2019-04-14T21:22:13.750Z,12.65
2019-04-14T21:25:21.688Z,15.03
2019-04-14T21:28:29.631Z,10.03
2019-04-14T21:34:37.208Z,9.83
2019-04-14T21:37:45.076Z,14.40
2019-04-14T21:40:45.740Z,9.43
2019-04-14T21:43:34.612Z,13.95
2019-04-14T21:46:42.648Z,11.25
2019-04-14T21:49:31.540Z,14.20
2019-04-14T21:52:39.430Z,10.43
2019-04-14T21:55:28.313Z,14.35
2019-04-14T22:01:57.512Z,14.15
2019-04-14T22:05:05.401Z,11.90
2019-04-14T22:08:13.299Z,11.33
2019-04-14T22:14:11.609Z,12.37
2019-04-14T22:17:00.454Z,10.75
2019-04-14T22:19:49.430Z,11.38
2019-04-14T22:22:39.844Z,9.68
2019-04-14T22:28:23.315Z,21.23
2019-04-14T22:31:12.191Z,15.93
2019-04-14T22:34:01.167Z,16.35
2019-04-14T22:37:09.134Z,13.78
2019-04-14T22:39:51.363Z,12.55
2019-04-14T22:42:40.217Z,11.75
2019-04-14T22:45:29.141Z,13.22
2019-04-14T22:48:18.063Z,10.78
2019-04-14T22:51:06.913Z,13.18
2019-04-14T22:53:55.752Z,13.48
2019-04-14T22:56:44.652Z,11.90
2019-04-14T22:59:33.475Z,9.90
2019-04-14T23:02:41.346Z,9.93
2019-04-14T23:05:49.209Z,8.38
2019-04-14T23:11:52.590Z,7.28
2019-04-14T23:15:00.540Z,9.25
2019-04-14T23:18:08.414Z,8.58
2019-04-14T23:21:16.327Z,5.75
2019-04-14T23:24:24.268Z,7.90
2019-04-14T23:27:13.254Z,10.45
2019-04-14T23:30:02.095Z,7.83
2019-04-14T23:32:50.908Z,8.18
2019-04-14T23:35:39.772Z,6.85
2019-04-14T23:38:28.586Z,8.90
2019-04-14T23:41:17.423Z,5.53
2019-04-14T23:44:06.386Z,7.20
2019-04-14T23:46:55.186Z,8.60
2019-04-14T23:49:44.018Z,7.00
2019-04-14T23:52:32.862Z,6.70
2019-04-14T23:55:40.799Z,9.50
2019-04-14T23:58:29.688Z,7.17
